MYF weather

Montgomery-Gibbs Executive Airport
San Diego, California, United States

Public forecast

Using degrees Fahrenheit for public forecast. Weather courtesy of forecast.io.

METAR (pilot weather report)

Retrieved 2019/07/21 02:53 UTC (1 hour ago):

KMYF 210253Z 31008KT 10SM CLR 19/16 A2989 RMK AO2 SLP116 T01940156 55002

TAF (pilot weather forecast)

Forecast is more than 12 hours old.

Closest forecast is Miramar Marine Corps Air Station - Mitscher Field, 3.2 nm (5.9 km) N. Retrieved 2014/11/27 15:09 UTC (5 years ago):

TAF COR KNKX 271500Z 2715/2815 VRB05KT 9999 SKC QNH3001INS BECMG 2806/2808 07007KT QNH2998INS TX30/2721Z TN14/2812Z COR 1520